Terminal Aerodrome Forecast
Issued by NWS

Current Version | Previous Version | Text Only | Print | Product List | Glossary On
Versions: 1 2 3 4 5 6 7 8 9 10 11 12 13 14 15 16
295
FTUS41 KPBZ 010525
TAFMGW
TAF
KMGW 010525Z 0106/0206 VRB03KT P6SM SCT250
     FM011500 17005KT P6SM SCT250=

USA.gov is the U.S. government's official web portal to all federal, state and local government web resources and services.